RJTH(METAR)
02/20 17:00
RJTH 200800Z 25011KT 9999 FEW020 SCT030 17/13 Q1012 RMK A2991=
戻る
トップページへ戻る
IMOC Co,.Ltd.